Time;durP1;ratioP1;P1;durP2;ratioP2;P2;SDS_P1;SDS_P2;PMS_P1;PMS_P2;Temp;Humidity;BMP_temperature;BMP_pressure;BME280_temperature;BME280_humidity;BME280_pressure;Samples;Min_cycle;Max_cycle;Signal;HPM_P1;HPM_P2
2021/10/25 00:02:09;;;;;;;22.63;12.70;;;128.30;2252.80;;;;;;4972210;28;20089;-51
2021/10/25 00:04:34;;;;;;;45.20;23.55;;;128.30;2252.80;;;;;;4972012;28;20417;-50
2021/10/25 00:07:01;;;;;;;30.33;17.05;;;128.10;2252.80;;;;;;4971998;28;20362;-52
2021/10/25 00:09:27;;;;;;;70.40;34.28;;;128.10;2252.80;;;;;;4972185;28;20037;-51
2021/10/25 00:11:54;;;;;;;32.72;19.52;;;128.10;2252.80;;;;;;4971960;28;20031;-52
2021/10/25 00:14:20;;;;;;;33.53;20.63;;;128.00;2252.80;;;;;;4971711;28;20066;-54
2021/10/25 00:16:47;;;;;;;29.33;18.42;;;103.20;2227.20;;;;;;4972026;28;20031;-51
2021/10/25 00:19:13;;;;;;;51.45;27.45;;;103.10;2227.20;;;;;;4971714;28;20039;-51
2021/10/25 00:21:39;;;;;;;40.35;19.85;;;103.20;2227.20;;;;;;4971616;28;20033;-52
2021/10/25 00:24:05;;;;;;;41.85;24.00;;;103.20;2227.20;;;;;;4971578;28;20039;-51
2021/10/25 00:26:31;;;;;;;45.58;29.13;;;103.10;2227.20;;;;;;4971550;28;20042;-51
2021/10/25 00:28:57;;;;;;;25.00;15.02;;;103.10;2227.20;;;;;;4971977;28;20397;-51
2021/10/25 00:31:23;;;;;;;22.52;13.82;;;103.00;2227.20;;;;;;4971597;28;20445;-51
2021/10/25 00:33:49;;;;;;;20.33;15.68;;;103.00;2227.20;;;;;;4971564;28;20030;-52
2021/10/25 00:36:15;;;;;;;22.55;14.43;;;103.00;2227.20;;;;;;4971555;28;20074;-51
2021/10/25 00:38:41;;;;;;;24.48;11.68;;;102.90;2227.20;;;;;;4971268;28;20035;-52
2021/10/25 00:41:08;;;;;;;23.35;12.23;;;102.90;2227.20;;;;;;4971504;28;20027;-51
2021/10/25 00:43:33;;;;;;;20.20;13.48;;;103.00;2227.20;;;;;;4971327;28;20015;-52
2021/10/25 00:45:59;;;;;;;24.17;13.95;;;102.90;2227.20;;;;;;4971327;28;20031;-52
2021/10/25 00:48:25;;;;;;;31.95;18.80;;;102.90;2227.20;;;;;;4971306;28;20019;-52
2021/10/25 00:50:51;;;;;;;30.75;17.67;;;103.00;2227.20;;;;;;4971210;28;20122;-52
2021/10/25 00:53:18;;;;;;;34.63;19.88;;;102.90;2227.20;;;;;;4971420;28;20109;-51
2021/10/25 00:55:44;;;;;;;23.02;12.35;;;103.00;2227.20;;;;;;4971316;28;20089;-50
2021/10/25 00:58:11;;;;;;;19.10;12.50;;;103.00;2227.20;;;;;;4971255;28;20027;-51
2021/10/25 01:00:37;;;;;;;26.27;12.95;;;102.90;2227.20;;;;;;4971392;28;20050;-51
2021/10/25 01:03:03;;;;;;;34.42;21.50;;;103.00;2227.20;;;;;;4971135;28;20030;-51
2021/10/25 01:05:30;;;;;;;40.08;25.08;;;103.00;2227.20;;;;;;4970903;28;20536;-50
2021/10/25 01:07:56;;;;;;;50.40;27.80;;;103.00;2227.20;;;;;;4971470;28;20038;-52
2021/10/25 01:10:23;;;;;;;34.03;21.17;;;103.00;2227.20;;;;;;4970856;28;20035;-51
2021/10/25 01:12:52;;;;;;;30.70;18.40;;;103.00;2227.20;;;;;;4974268;28;20405;-52
2021/10/25 01:15:19;;;;;;;40.30;21.20;;;103.10;2227.20;;;;;;4975384;28;20027;-54
2021/10/25 01:17:44;;;;;;;29.52;16.85;;;103.10;2227.20;;;;;;4975162;28;20034;-51
2021/10/25 01:20:10;;;;;;;27.48;15.05;;;103.00;2227.20;;;;;;4975086;28;20031;-52
2021/10/25 01:22:37;;;;;;;21.77;13.80;;;103.00;2227.20;;;;;;4975188;28;20113;-57
2021/10/25 01:25:04;;;;;;;22.40;13.60;;;103.00;2227.20;;;;;;4974678;28;20500;-52
2021/10/25 01:27:30;;;;;;;14.57;9.27;;;102.90;2227.20;;;;;;4974719;28;20078;-57
2021/10/25 01:29:57;;;;;;;15.93;9.63;;;102.90;2227.20;;;;;;4974853;28;20026;-58
2021/10/25 01:32:23;;;;;;;20.95;13.35;;;102.80;2227.20;;;;;;4974808;28;20033;-58
2021/10/25 01:34:49;;;;;;;22.92;13.88;;;102.60;2227.20;;;;;;4975244;28;20495;-57
2021/10/25 01:37:15;;;;;;;18.02;11.85;;;102.50;2227.20;;;;;;4974966;28;20462;-51
2021/10/25 01:39:41;;;;;;;16.90;11.65;;;102.40;2227.20;;;;;;4974625;28;20059;-52
2021/10/25 01:42:07;;;;;;;18.92;10.50;;;102.50;2227.20;;;;;;4974768;28;20077;-58
2021/10/25 01:44:34;;;;;;;18.25;10.35;;;102.50;2227.20;;;;;;4974453;28;20113;-55
2021/10/25 01:47:00;;;;;;;17.90;10.25;;;102.60;2227.20;;;;;;4974469;28;20034;-52
2021/10/25 01:49:26;;;;;;;32.25;17.35;;;102.60;2227.20;;;;;;4974427;28;20035;-52
2021/10/25 01:51:53;;;;;;;24.50;17.58;;;102.70;2227.20;;;;;;4974464;28;20488;-56
2021/10/25 01:54:19;;;;;;;18.48;10.00;;;102.70;2227.20;;;;;;4974451;28;20035;-52
2021/10/25 01:56:44;;;;;;;15.45;9.50;;;102.80;2227.20;;;;;;4974723;28;20504;-57
2021/10/25 01:59:10;;;;;;;17.75;10.35;;;102.60;2227.20;;;;;;4974321;28;20023;-52
2021/10/25 02:01:36;;;;;;;13.70;8.60;;;102.60;2227.20;;;;;;4974421;28;20026;-52
2021/10/25 02:04:03;;;;;;;24.42;13.27;;;102.60;2227.20;;;;;;4974022;28;20038;-52
2021/10/25 02:06:29;;;;;;;17.48;11.10;;;102.60;2227.20;;;;;;4957211;28;20045;-53
2021/10/25 02:08:55;;;;;;;16.58;10.88;;;102.60;2227.20;;;;;;4974243;28;20481;-59
2021/10/25 02:11:21;;;;;;;19.70;10.57;;;102.70;2227.20;;;;;;4974151;28;20023;-52
2021/10/25 02:13:47;;;;;;;15.05;8.95;;;102.60;2227.20;;;;;;4974217;28;20047;-52
2021/10/25 02:16:14;;;;;;;16.10;11.13;;;102.60;2227.20;;;;;;4974050;28;20028;-58
2021/10/25 02:18:40;;;;;;;22.40;11.27;;;102.60;2227.20;;;;;;4973835;28;20079;-52
2021/10/25 02:21:07;;;;;;;19.70;12.35;;;102.50;2227.20;;;;;;4974293;28;20037;-56
2021/10/25 02:23:33;;;;;;;19.45;10.70;;;102.50;2227.20;;;;;;4972981;28;20081;-52
2021/10/25 02:25:59;;;;;;;23.55;13.18;;;102.40;2227.20;;;;;;4974037;28;20031;-59
2021/10/25 02:28:25;;;;;;;31.90;19.80;;;102.50;2227.20;;;;;;4973921;28;20030;-58
2021/10/25 02:30:52;;;;;;;35.28;21.17;;;102.50;2227.20;;;;;;4973760;28;20035;-52
2021/10/25 02:33:21;;;;;;;20.48;13.25;;;102.50;2227.20;;;;;;4973994;28;20042;-52
2021/10/25 02:35:47;;;;;;;20.13;9.95;;;102.50;2227.20;;;;;;4974180;28;20053;-52
2021/10/25 02:38:13;;;;;;;16.23;9.50;;;102.40;2227.20;;;;;;4973726;28;20054;-53
2021/10/25 02:40:40;;;;;;;16.80;10.27;;;102.40;2227.20;;;;;;4973512;28;20027;-53
2021/10/25 02:43:06;;;;;;;16.08;10.68;;;77.70;2227.20;;;;;;4973651;28;20019;-53
2021/10/25 02:45:33;;;;;;;29.27;19.45;;;77.60;2227.20;;;;;;4973207;28;20039;-59
2021/10/25 02:47:59;;;;;;;31.77;17.77;;;77.70;2227.20;;;;;;4973604;28;20019;-52
2021/10/25 02:50:25;;;;;;;38.22;23.40;;;77.70;2227.20;;;;;;4973476;28;20045;-58
2021/10/25 02:52:51;;;;;;;74.30;44.47;;;102.40;2227.20;;;;;;4973242;28;20389;-52
2021/10/25 02:55:17;;;;;;;75.30;51.97;;;102.40;2227.20;;;;;;4973580;28;20034;-51
2021/10/25 02:57:43;;;;;;;91.47;55.38;;;77.70;2227.20;;;;;;4973040;28;20018;-52
2021/10/25 03:00:12;;;;;;;150.48;86.30;;;102.40;2227.20;;;;;;4973273;28;20038;-57
2021/10/25 03:02:39;;;;;;;79.70;46.47;;;102.40;2227.20;;;;;;4973390;28;20023;-52
2021/10/25 03:05:05;;;;;;;49.58;20.48;;;77.70;2227.20;;;;;;4973135;28;20097;-57
2021/10/25 03:07:31;;;;;;;46.70;24.80;;;102.40;2227.20;;;;;;4973225;28;20078;-52
2021/10/25 03:09:58;;;;;;;14.40;10.07;;;77.60;2227.20;;;;;;4973115;28;20054;-52
2021/10/25 03:12:24;;;;;;;14.23;10.00;;;77.60;2227.20;;;;;;4972927;28;20077;-58
2021/10/25 03:14:50;;;;;;;16.05;12.10;;;77.60;2227.20;;;;;;4973056;28;20054;-52
2021/10/25 03:17:17;;;;;;;62.47;35.00;;;77.60;2227.20;;;;;;4973222;28;20037;-52
2021/10/25 03:19:43;;;;;;;60.42;34.97;;;77.60;2227.20;;;;;;4972789;28;20026;-52
2021/10/25 03:22:09;;;;;;;24.05;15.32;;;77.50;2227.20;;;;;;4973352;28;20031;-52
2021/10/25 03:24:35;;;;;;;24.05;15.80;;;77.50;2227.20;;;;;;4973022;28;20043;-58
2021/10/25 03:27:01;;;;;;;65.10;35.90;;;77.50;2227.20;;;;;;4972673;28;20102;-52
2021/10/25 03:29:27;;;;;;;34.38;20.85;;;77.50;2227.20;;;;;;4972737;28;20077;-52
2021/10/25 03:31:53;;;;;;;24.75;12.75;;;77.40;2227.20;;;;;;4972663;28;20065;-54
2021/10/25 03:34:19;;;;;;;21.75;11.07;;;77.50;2227.20;;;;;;4972061;28;20030;-52
2021/10/25 03:36:48;;;;;;;14.68;8.30;;;77.40;2227.20;;;;;;4973128;28;20030;-53
2021/10/25 03:39:18;;;;;;;13.27;8.15;;;77.40;2227.20;;;;;;4972247;28;20019;-57
2021/10/25 03:41:47;;;;;;;18.42;9.57;;;77.50;2227.20;;;;;;4972503;28;20027;-59
2021/10/25 03:47:11;;;;;;;20.13;11.32;;;77.50;2227.20;;;;;;4875164;29;20439;-52
2021/10/25 03:49:44;;;;;;;18.70;10.35;;;77.50;2227.20;;;;;;4875315;29;20399;-52
2021/10/25 03:52:29;;;;;;;26.88;17.75;;;77.60;2227.20;;;;;;4875178;29;20452;-52
2021/10/25 04:30:32;;;;;;;22.27;19.17;;;77.40;2227.20;;;;;;4819437;29;20050;-51
2021/10/25 04:32:58;;;;;;;13.77;9.45;;;77.40;2227.20;;;;;;4824710;29;20049;-59
2021/10/25 04:35:24;;;;;;;11.05;7.63;;;77.30;2227.20;;;;;;4837760;29;20425;-51
2021/10/25 04:37:50;;;;;;;13.13;8.00;;;77.30;2227.20;;;;;;4837508;29;20049;-52
2021/10/25 04:40:16;;;;;;;16.00;10.38;;;77.20;2227.20;;;;;;4837649;29;20125;-56
2021/10/25 04:42:42;;;;;;;19.85;9.75;;;77.20;2227.20;;;;;;4837379;29;20046;-52
2021/10/25 04:45:09;;;;;;;17.10;10.60;;;77.20;2227.20;;;;;;4837397;29;20144;-51
2021/10/25 04:47:35;;;;;;;33.25;19.95;;;77.20;2227.20;;;;;;4837592;29;20553;-58
2021/10/25 04:50:02;;;;;;;29.05;16.15;;;77.10;2227.20;;;;;;4838234;29;20103;-51
2021/10/25 04:52:28;;;;;;;18.10;11.10;;;77.20;2227.20;;;;;;4855681;29;20037;-52
2021/10/25 04:54:54;;;;;;;12.73;8.20;;;77.20;2227.20;;;;;;4855832;29;20147;-57
2021/10/25 04:57:20;;;;;;;18.10;12.05;;;77.20;2227.20;;;;;;4900541;29;20048;-52
2021/10/25 04:59:45;;;;;;;27.52;11.02;;;77.10;2227.20;;;;;;4911955;29;20042;-51
2021/10/25 05:02:12;;;;;;;28.85;20.40;;;77.20;2227.20;;;;;;4946753;28;20085;-52
2021/10/25 05:04:38;;;;;;;21.10;13.05;;;77.20;2227.20;;;;;;4971245;28;20027;-52
2021/10/25 05:07:04;;;;;;;23.90;14.70;;;77.30;2227.20;;;;;;4971186;28;20030;-52
2021/10/25 05:09:30;;;;;;;20.45;16.02;;;77.20;2227.20;;;;;;4971196;28;20037;-57
2021/10/25 05:11:57;;;;;;;21.63;14.07;;;77.20;2227.20;;;;;;4971097;28;20122;-54
2021/10/25 05:14:22;;;;;;;25.30;14.05;;;77.10;2227.20;;;;;;4970994;28;20046;-59
2021/10/25 05:16:48;;;;;;;21.67;13.82;;;77.20;2227.20;;;;;;4971407;28;20114;-51
2021/10/25 05:19:14;;;;;;;15.00;9.00;;;77.20;2227.20;;;;;;4971195;28;20031;-52
2021/10/25 05:21:40;;;;;;;14.80;7.82;;;77.30;2227.20;;;;;;4971026;28;20477;-51
2021/10/25 05:24:06;;;;;;;23.00;11.55;;;77.30;2227.20;;;;;;4971003;28;20106;-58
2021/10/25 05:26:32;;;;;;;20.50;11.85;;;77.40;2227.20;;;;;;4970997;28;20031;-58
2021/10/25 05:28:59;;;;;;;18.48;10.10;;;77.40;2227.20;;;;;;4971085;28;20035;-56
2021/10/25 05:31:25;;;;;;;16.13;8.40;;;77.40;2227.20;;;;;;4971248;28;20474;-57
2021/10/25 05:33:51;;;;;;;54.92;29.95;;;77.50;2227.20;;;;;;4970939;28;20114;-52
2021/10/25 05:36:17;;;;;;;25.25;15.95;;;77.50;2227.20;;;;;;4971143;28;20113;-51
2021/10/25 05:38:43;;;;;;;34.78;16.98;;;77.60;2227.20;;;;;;4971171;28;20034;-51
2021/10/25 05:41:13;;;;;;;43.58;25.88;;;77.60;2227.20;;;;;;4970907;28;20084;-52
2021/10/25 05:43:41;;;;;;;96.95;45.50;;;77.60;2227.20;;;;;;4970783;28;20397;-51
2021/10/25 05:46:06;;;;;;;94.28;47.63;;;77.60;2227.20;;;;;;4971012;28;20039;-52
2021/10/25 05:48:33;;;;;;;175.35;88.68;;;77.70;2227.20;;;;;;4970848;28;20038;-58
2021/10/25 05:51:00;;;;;;;134.60;72.57;;;102.40;2227.20;;;;;;4970911;28;20038;-58
2021/10/25 05:53:26;;;;;;;78.70;49.20;;;102.50;2227.20;;;;;;4970583;28;20045;-51
2021/10/25 05:55:52;;;;;;;85.03;51.03;;;102.50;2227.20;;;;;;4970923;28;20061;-51
2021/10/25 05:58:22;;;;;;;71.40;42.83;;;102.50;2227.20;;;;;;4973068;28;20057;-54
2021/10/25 06:00:52;;;;;;;55.35;34.20;;;102.50;2227.20;;;;;;4974450;28;20461;-52
2021/10/25 06:03:22;;;;;;;38.00;18.85;;;102.50;2227.20;;;;;;4974375;28;20035;-52
2021/10/25 06:05:47;;;;;;;77.65;40.00;;;102.50;2227.20;;;;;;4974467;28;20393;-51
2021/10/25 06:08:14;;;;;;;210.25;124.22;;;102.60;2227.20;;;;;;4974127;28;20023;-52
2021/10/25 06:10:41;;;;;;;243.95;142.07;;;102.60;2227.20;;;;;;4974226;28;20050;-52
2021/10/25 06:13:10;;;;;;;165.30;91.38;;;102.50;2227.20;;;;;;4974185;28;20129;-52
2021/10/25 06:15:39;;;;;;;78.13;44.72;;;102.70;2227.20;;;;;;4974265;28;20077;-57
2021/10/25 06:18:08;;;;;;;203.20;119.25;;;102.70;2227.20;;;;;;4974191;28;20107;-52
2021/10/25 06:20:37;;;;;;;179.57;102.95;;;102.70;2227.20;;;;;;4973775;28;20037;-59
2021/10/25 06:23:14;;;;;;;179.93;107.40;;;102.80;2227.20;;;;;;4973835;28;20031;-52
2021/10/25 06:25:41;;;;;;;183.95;98.13;;;102.70;2227.20;;;;;;4973745;28;20043;-58
2021/10/25 06:28:08;;;;;;;165.65;91.72;;;102.70;2227.20;;;;;;4974019;28;20409;-52
2021/10/25 06:30:35;;;;;;;155.57;92.22;;;102.90;2227.20;;;;;;4973959;28;20382;-52
2021/10/25 06:33:03;;;;;;;161.15;94.07;;;103.00;2227.20;;;;;;4973867;28;20069;-52
2021/10/25 06:35:31;;;;;;;143.35;87.13;;;102.90;2227.20;;;;;;4973706;28;20161;-52
2021/10/25 06:38:11;;;;;;;117.15;71.82;;;103.10;2227.20;;;;;;4973751;28;20035;-53
2021/10/25 06:40:37;;;;;;;79.03;45.20;;;103.10;2227.20;;;;;;4973789;28;20061;-57
2021/10/25 06:43:04;;;;;;;79.40;46.30;;;103.10;2227.20;;;;;;4973499;28;20058;-56
2021/10/25 06:45:30;;;;;;;90.10;50.58;;;103.00;2227.20;;;;;;4973345;28;20038;-56
2021/10/25 06:47:56;;;;;;;64.05;38.50;;;103.10;2227.20;;;;;;4973648;28;20037;-52
2021/10/25 06:50:26;;;;;;;62.67;38.83;;;103.10;2227.20;;;;;;4973684;28;20085;-52
2021/10/25 06:53:05;;;;;;;57.25;34.40;;;103.30;2227.20;;;;;;4973205;28;20027;-58
2021/10/25 06:55:31;;;;;;;60.47;37.25;;;128.00;2252.80;;;;;;4973291;28;20035;-59
2021/10/25 06:57:58;;;;;;;49.28;30.45;;;128.00;2252.80;;;;;;4973544;28;20026;-52
2021/10/25 07:00:23;;;;;;;38.70;24.67;;;103.30;2227.20;;;;;;4973436;28;20085;-52
2021/10/25 07:02:50;;;;;;;86.65;49.10;;;103.30;2227.20;;;;;;4973371;28;20023;-52
2021/10/25 07:05:16;;;;;;;118.32;68.50;;;128.00;2252.80;;;;;;4973451;28;20219;-55
2021/10/25 07:07:42;;;;;;;136.18;80.60;;;128.20;2252.80;;;;;;4973028;28;20147;-52
2021/10/25 07:10:09;;;;;;;131.23;78.40;;;128.30;2252.80;;;;;;4973052;28;20027;-57
2021/10/25 07:12:35;;;;;;;136.15;81.57;;;128.40;2252.80;;;;;;4972990;28;20074;-52
2021/10/25 07:15:02;;;;;;;130.07;84.10;;;128.70;2252.80;;;;;;4972859;28;20031;-52
2021/10/25 07:20:15;;;;;;;135.20;92.35;;;231.00;2252.80;;;;;;4973037;28;20085;-53
2021/10/25 08:07:16;;;;;;;62.92;52.15;;;460.80;1792.00;;;;;;4856503;29;20077;-51
2021/10/25 08:09:51;;;;;;;70.33;49.80;;;460.80;1817.60;;;;;;4880792;29;20045;-58
2021/10/25 08:12:19;;;;;;;63.75;52.30;;;486.50;1715.20;;;;;;4879709;29;20502;-57
2021/10/25 08:15:07;;;;;;;48.90;38.10;;;487.00;1689.60;;;;;;4893630;29;20111;-58
2021/10/25 08:17:51;;;;;;;49.75;42.80;;;487.20;1612.80;;;;;;4891154;29;20037;-56
2021/10/25 08:20:17;;;;;;;76.63;61.38;;;461.60;1689.60;;;;;;4874604;29;20029;-56
2021/10/25 08:22:43;;;;;;;41.70;35.08;;;461.70;1715.20;;;;;;4874684;29;20466;-55
2021/10/25 08:25:10;;;;;;;39.08;27.85;;;461.70;1689.60;;;;;;4874709;29;20416;-51
2021/10/25 08:27:37;;;;;;;43.00;37.20;;;461.50;1689.60;;;;;;4874765;29;20029;-50
2021/10/25 08:30:05;;;;;;;52.70;44.95;;;461.60;1715.20;;;;;;4874554;29;20033;-51
2021/10/25 08:40:39;;;;;;;49.58;36.50;;;461.70;1689.60;;;;;;4874697;29;20120;-51
2021/10/25 08:43:06;;;;;;;42.65;32.58;;;486.60;1715.20;;;;;;4876209;29;20207;-57
2021/10/25 08:45:33;;;;;;;35.28;31.23;;;486.70;1689.60;;;;;;4932935;29;20043;-51
2021/10/25 08:48:04;;;;;;;33.72;26.17;;;486.80;1664.00;;;;;;4933289;29;20166;-51
2021/10/25 08:50:35;;;;;;;37.00;27.95;;;512.60;1612.80;;;;;;4932808;29;20032;-51
2021/10/25 08:53:02;;;;;;;34.67;30.73;;;512.90;1561.60;;;;;;4932662;29;20023;-52
2021/10/25 08:55:28;;;;;;;36.10;27.55;;;538.10;1536.00;;;;;;4932932;29;20118;-52
2021/10/25 08:57:55;;;;;;;41.90;37.35;;;563.30;1561.60;;;;;;4932712;29;20068;-52
2021/10/25 09:00:35;;;;;;;107.88;92.22;;;564.00;1484.80;;;;;;4932784;29;20032;-52
2021/10/25 09:03:02;;;;;;;34.55;30.15;;;564.00;1484.80;;;;;;4932815;29;20093;-52
2021/10/25 09:05:29;;;;;;;40.45;34.95;;;589.20;1433.60;;;;;;4932874;29;20115;-52
2021/10/25 09:08:04;;;;;;;31.08;24.15;;;563.90;1459.20;;;;;;4933127;29;20119;-51
2021/10/25 09:10:34;;;;;;;28.88;23.10;;;537.60;1536.00;;;;;;4932569;29;20534;-52
2021/10/25 09:13:06;;;;;;;107.55;60.33;;;512.60;1536.00;;;;;;4932534;29;20581;-52
2021/10/25 09:15:38;;;;;;;42.03;26.92;;;487.10;1612.80;;;;;;4932816;29;20478;-59
2021/10/25 09:18:13;;;;;;;42.75;30.85;;;486.50;1664.00;;;;;;4932893;29;20047;-53
2021/10/25 09:20:42;;;;;;;42.13;31.75;;;461.20;1715.20;;;;;;4932865;29;20390;-53
2021/10/25 09:23:09;;;;;;;33.15;25.40;;;460.80;1766.40;;;;;;4932569;29;20034;-56
2021/10/25 09:25:36;;;;;;;43.88;26.75;;;435.30;1766.40;;;;;;4932888;29;20048;-52
2021/10/25 09:28:15;;;;;;;47.15;27.05;;;435.40;1817.60;;;;;;4932793;29;20126;-59
2021/10/25 09:30:47;;;;;;;44.58;32.60;;;410.50;1894.40;;;;;;4932611;29;20036;-53
2021/10/25 09:33:19;;;;;;;53.63;35.95;;;410.30;1920.00;;;;;;4934544;29;20097;-56
2021/10/25 09:35:48;;;;;;;27.38;18.77;;;410.50;1894.40;;;;;;4936487;29;20028;-53
2021/10/25 09:39:00;;;;;;;40.20;29.50;;;410.20;1843.20;;;;;;4936070;29;20039;-53
2021/10/25 09:49:30;;;;;;;16.52;11.55;;;384.40;1843.20;;;;;;4936004;29;20057;-53
2021/10/25 09:52:01;;;;;;;19.83;14.10;;;384.90;1843.20;;;;;;4936153;29;20110;-57
2021/10/25 09:54:29;;;;;;;22.30;17.63;;;384.60;1843.20;;;;;;4935897;29;20039;-54
2021/10/25 09:57:09;;;;;;;25.60;16.40;;;384.90;1843.20;;;;;;4935908;29;20028;-54
2021/10/25 09:59:49;;;;;;;18.88;13.48;;;384.90;1817.60;;;;;;4936300;29;20484;-54
2021/10/25 10:02:17;;;;;;;15.85;12.75;;;409.60;1894.40;;;;;;4935963;29;20090;-63
2021/10/25 10:04:45;;;;;;;20.00;15.48;;;384.50;1868.80;;;;;;4935708;29;20031;-54
2021/10/25 10:07:18;;;;;;;22.15;15.23;;;384.50;1868.80;;;;;;4935836;29;20054;-54
2021/10/25 10:09:46;;;;;;;21.90;13.43;;;384.50;1894.40;;;;;;4936012;29;20106;-54
2021/10/25 10:12:19;;;;;;;15.18;11.88;;;384.50;1894.40;;;;;;4935544;29;20035;-54
2021/10/25 10:14:55;;;;;;;11.48;8.93;;;384.40;1894.40;;;;;;4935815;29;20031;-53
2021/10/25 10:17:36;;;;;;;15.20;11.40;;;384.30;1868.80;;;;;;4935692;29;20473;-54
2021/10/25 10:20:06;;;;;;;22.70;14.38;;;384.10;1894.40;;;;;;4935454;29;20016;-54
2021/10/25 10:22:39;;;;;;;15.15;12.23;;;384.30;1894.40;;;;;;4935478;29;20035;-53
2021/10/25 10:25:05;;;;;;;16.63;11.25;;;384.50;1868.80;;;;;;4935356;29;20073;-53
2021/10/25 10:27:31;;;;;;;29.15;19.00;;;384.30;1894.40;;;;;;4935360;29;20035;-51
2021/10/25 10:29:59;;;;;;;21.13;15.60;;;384.50;1894.40;;;;;;4935559;29;20035;-53
2021/10/25 10:32:27;;;;;;;29.13;18.67;;;384.40;1894.40;;;;;;4935225;29;20035;-51
2021/10/25 10:34:54;;;;;;;10.43;6.97;;;384.30;1894.40;;;;;;4935097;29;20039;-52
2021/10/25 10:37:27;;;;;;;32.15;17.58;;;384.30;1894.40;;;;;;4935525;29;20847;-52
2021/10/25 10:40:13;;;;;;;23.92;14.60;;;384.40;1894.40;;;;;;4935167;29;20036;-53
2021/10/25 10:42:43;;;;;;;16.50;9.32;;;384.50;1894.40;;;;;;4935314;29;20028;-63
2021/10/25 10:45:11;;;;;;;17.45;12.25;;;384.20;1894.40;;;;;;4934927;29;20039;-52
2021/10/25 10:47:53;;;;;;;31.98;16.45;;;384.00;1920.00;;;;;;4935475;29;20102;-62
2021/10/25 10:50:19;;;;;;;13.98;9.40;;;384.10;1945.60;;;;;;4934200;29;20122;-62
2021/10/25 10:52:50;;;;;;;14.82;9.75;;;384.20;1894.40;;;;;;4935165;29;20036;-51
2021/10/25 10:55:17;;;;;;;16.65;9.77;;;384.30;1868.80;;;;;;4934884;29;20471;-52
2021/10/25 11:00:20;;;;;;;18.60;10.90;;;384.10;1920.00;;;;;;4934975;29;20110;-52
2021/10/25 11:03:08;;;;;;;24.90;18.52;;;384.10;1920.00;;;;;;4934905;29;20027;-54
2021/10/25 11:05:38;;;;;;;29.88;19.65;;;384.30;1920.00;;;;;;4935012;29;20040;-56
2021/10/25 11:08:13;;;;;;;24.50;18.08;;;384.20;1945.60;;;;;;4934586;29;20026;-51
2021/10/25 11:10:41;;;;;;;24.75;17.05;;;384.20;1920.00;;;;;;4934824;29;20031;-55
2021/10/25 11:13:21;;;;;;;18.02;13.35;;;384.30;1920.00;;;;;;4934842;29;20051;-51
2021/10/25 11:16:01;;;;;;;21.58;12.95;;;384.30;1894.40;;;;;;4934763;29;20046;-52
2021/10/25 11:18:31;;;;;;;20.08;12.18;;;384.30;1920.00;;;;;;4934769;29;20456;-51
2021/10/25 11:21:26;;;;;;;15.98;10.15;;;384.30;1920.00;;;;;;4934952;29;20054;-51
2021/10/25 11:23:55;;;;;;;18.08;12.07;;;384.30;1945.60;;;;;;4934313;29;20032;-58
2021/10/25 11:26:31;;;;;;;18.70;11.73;;;384.40;1920.00;;;;;;4934764;29;20091;-52
2021/10/25 11:29:08;;;;;;;22.33;14.68;;;384.50;1920.00;;;;;;4934283;29;20035;-54
2021/10/25 11:31:58;;;;;;;21.25;14.15;;;384.50;1920.00;;;;;;4934466;29;20083;-53
2021/10/25 11:34:30;;;;;;;23.20;12.32;;;384.50;1945.60;;;;;;4934244;29;20028;-56
2021/10/25 11:37:12;;;;;;;20.47;10.97;;;384.60;1945.60;;;;;;4934301;29;20372;-53
2021/10/25 11:42:28;;;;;;;12.70;8.23;;;384.60;1945.60;;;;;;4934275;29;20026;-60
2021/10/25 11:44:57;;;;;;;20.50;13.48;;;384.60;1920.00;;;;;;4933920;29;20157;-52
2021/10/25 11:47:24;;;;;;;31.80;15.30;;;384.60;1945.60;;;;;;4933897;29;20020;-54
2021/10/25 11:49:52;;;;;;;24.42;11.82;;;384.80;1945.60;;;;;;4931782;29;20031;-55
2021/10/25 11:52:18;;;;;;;14.98;11.77;;;384.70;1945.60;;;;;;4932182;29;20031;-52
2021/10/25 11:54:54;;;;;;;19.63;14.18;;;384.70;1945.60;;;;;;4931746;29;20391;-55
2021/10/25 11:57:21;;;;;;;22.60;13.05;;;384.80;1945.60;;;;;;4932259;29;20062;-58
2021/10/25 12:00:13;;;;;;;19.15;14.55;;;384.80;1971.20;;;;;;4932482;29;20044;-52
2021/10/25 12:02:39;;;;;;;18.38;13.75;;;384.80;1945.60;;;;;;4929733;29;20032;-55
2021/10/25 12:05:06;;;;;;;30.27;22.50;;;384.80;1971.20;;;;;;4932268;29;20054;-51
2021/10/25 12:07:33;;;;;;;25.65;14.68;;;384.90;1971.20;;;;;;4932135;29;20028;-54
2021/10/25 12:10:05;;;;;;;23.58;14.57;;;409.60;1971.20;;;;;;4932225;29;20032;-54
2021/10/25 12:12:35;;;;;;;20.52;13.23;;;409.60;1996.80;;;;;;4931616;29;20107;-58
2021/10/25 12:15:02;;;;;;;25.65;17.40;;;384.80;1971.20;;;;;;4931317;29;20091;-58
2021/10/25 12:17:34;;;;;;;20.23;14.20;;;409.60;1996.80;;;;;;4931974;29;20024;-56
2021/10/25 12:20:11;;;;;;;25.15;15.10;;;409.70;1996.80;;;;;;4932290;29;20464;-61
2021/10/25 12:22:38;;;;;;;32.08;19.27;;;409.60;2022.40;;;;;;4932024;29;20390;-63
2021/10/25 12:25:05;;;;;;;27.63;16.50;;;384.90;1971.20;;;;;;4931754;29;20119;-54
2021/10/25 12:27:38;;;;;;;28.27;21.13;;;409.70;1996.80;;;;;;4931191;29;20111;-53
2021/10/25 12:30:11;;;;;;;32.35;21.83;;;409.70;2022.40;;;;;;4931524;29;20027;-52
2021/10/25 12:32:49;;;;;;;27.27;17.52;;;409.70;1996.80;;;;;;4931873;29;20028;-52
2021/10/25 12:35:15;;;;;;;25.00;16.42;;;409.60;1996.80;;;;;;4931521;29;20031;-53
2021/10/25 12:37:40;;;;;;;30.05;18.23;;;409.60;2022.40;;;;;;4931562;29;20078;-53
2021/10/25 12:40:19;;;;;;;29.25;18.58;;;409.60;2022.40;;;;;;4931678;29;20482;-53
2021/10/25 12:42:46;;;;;;;20.63;11.07;;;409.70;2022.40;;;;;;4931416;29;20095;-53
2021/10/25 12:45:17;;;;;;;24.48;15.32;;;409.60;1996.80;;;;;;4931525;29;20455;-53
2021/10/25 12:47:43;;;;;;;18.02;11.77;;;409.70;2022.40;;;;;;4931581;29;20024;-62
2021/10/25 12:50:13;;;;;;;21.42;12.20;;;409.60;2022.40;;;;;;4931444;29;20035;-61
2021/10/25 12:52:39;;;;;;;21.15;13.23;;;409.70;2022.40;;;;;;4931443;29;20036;-56
2021/10/25 12:55:06;;;;;;;18.15;14.38;;;409.60;2022.40;;;;;;4931052;29;20170;-60
2021/10/25 12:57:37;;;;;;;26.98;16.38;;;409.70;2022.40;;;;;;4931109;29;20028;-59
2021/10/25 13:00:15;;;;;;;28.02;16.15;;;409.70;2022.40;;;;;;4931531;29;20445;-55
2021/10/25 13:02:49;;;;;;;32.10;19.75;;;409.70;2048.00;;;;;;4931325;29;20549;-54
2021/10/25 13:05:21;;;;;;;29.10;17.98;;;409.80;2022.40;;;;;;4931300;29;20050;-57
2021/10/25 13:07:56;;;;;;;22.95;15.00;;;409.90;2022.40;;;;;;4935897;29;20042;-54
2021/10/25 13:10:25;;;;;;;24.67;17.08;;;409.90;2022.40;;;;;;4937694;29;20360;-56
2021/10/25 13:12:53;;;;;;;61.17;39.42;;;409.90;2022.40;;;;;;4937437;29;20054;-59
2021/10/25 13:15:20;;;;;;;39.15;24.85;;;410.10;2022.40;;;;;;4937618;29;20032;-52
2021/10/25 13:17:46;;;;;;;18.67;13.55;;;410.20;2022.40;;;;;;4937563;29;20040;-52
2021/10/25 13:20:17;;;;;;;16.52;12.23;;;410.20;1996.80;;;;;;4936935;29;20035;-53
2021/10/25 13:22:43;;;;;;;18.30;13.45;;;410.20;1996.80;;;;;;4937305;29;20035;-61
2021/10/25 13:25:08;;;;;;;21.50;13.75;;;410.00;2022.40;;;;;;4937648;29;20088;-52
2021/10/25 13:27:35;;;;;;;29.50;20.08;;;410.00;1996.80;;;;;;4937379;29;20036;-62
2021/10/25 13:30:03;;;;;;;35.28;22.83;;;410.00;1996.80;;;;;;4936953;29;20395;-52
2021/10/25 13:32:29;;;;;;;36.88;24.15;;;410.10;2022.40;;;;;;4937517;29;20031;-58
2021/10/25 13:34:55;;;;;;;37.08;23.55;;;410.10;2022.40;;;;;;4936727;29;20024;-53
2021/10/25 13:37:21;;;;;;;25.90;18.98;;;410.10;2022.40;;;;;;4937218;29;20087;-56
2021/10/25 13:39:46;;;;;;;26.80;18.25;;;410.10;1996.80;;;;;;4937469;29;20070;-52
2021/10/25 13:42:15;;;;;;;33.88;20.63;;;410.00;2022.40;;;;;;4937282;29;20035;-53
2021/10/25 13:44:41;;;;;;;38.85;25.83;;;410.00;2048.00;;;;;;4937078;29;20044;-53
2021/10/25 13:47:06;;;;;;;24.58;18.25;;;410.20;2022.40;;;;;;4937027;29;20036;-55
2021/10/25 13:49:32;;;;;;;21.38;16.15;;;410.20;2022.40;;;;;;4937065;29;20426;-53
2021/10/25 13:51:58;;;;;;;31.25;20.75;;;410.20;2022.40;;;;;;4937490;29;20115;-51
2021/10/25 13:54:24;;;;;;;26.60;18.80;;;410.20;2022.40;;;;;;4929312;29;20040;-53
2021/10/25 13:56:50;;;;;;;56.60;33.55;;;410.30;2022.40;;;;;;4937353;29;20031;-56